createdAt,value
2023-05-10T00:00:32.824Z,190.59
2023-05-10T00:01:32.865Z,191.03
2023-05-10T00:02:32.975Z,189.42
2023-05-10T00:03:32.904Z,189.91
2023-05-10T00:04:32.922Z,190.22
2023-05-10T00:05:32.878Z,190.00
2023-05-10T00:06:32.929Z,189.54
2023-05-10T00:07:32.948Z,190.44
2023-05-10T00:08:33.121Z,188.50
2023-05-10T00:09:32.983Z,190.44
2023-05-10T00:10:33.025Z,189.76
2023-05-10T00:11:33.031Z,189.72
2023-05-10T00:12:33.045Z,189.76
2023-05-10T00:13:33.117Z,189.30
2023-05-10T00:14:33.104Z,189.36
2023-05-10T00:15:33.094Z,190.38
2023-05-10T00:16:33.186Z,190.36
2023-05-10T00:17:33.154Z,189.89
2023-05-10T00:18:33.656Z,191.35
2023-05-10T00:19:33.194Z,188.72
2023-05-10T00:20:33.169Z,189.66
2023-05-10T00:21:33.193Z,188.66
2023-05-10T00:22:33.224Z,189.21
2023-05-10T00:23:33.264Z,189.05
2023-05-10T00:24:33.264Z,190.11
2023-05-10T00:25:33.319Z,188.93
2023-05-10T00:26:33.329Z,189.51
2023-05-10T00:27:33.369Z,189.50
2023-05-10T00:28:33.371Z,188.42
2023-05-10T00:29:33.413Z,189.47
2023-05-10T00:30:33.412Z,189.55
2023-05-10T00:31:33.526Z,189.20
2023-05-10T00:32:33.533Z,189.59
2023-05-10T00:33:33.614Z,188.85
2023-05-10T00:34:33.511Z,189.71
2023-05-10T00:35:33.548Z,188.84
2023-05-10T00:36:33.569Z,187.55
2023-05-10T00:37:33.610Z,190.23
2023-05-10T00:38:33.605Z,189.90
2023-05-10T00:39:33.636Z,189.91
2023-05-10T00:40:33.650Z,189.53
2023-05-10T00:41:33.715Z,189.44
2023-05-10T00:42:33.695Z,188.29
2023-05-10T00:43:33.747Z,187.97
2023-05-10T00:44:33.744Z,189.59
2023-05-10T00:45:33.807Z,188.80
2023-05-10T00:46:33.832Z,188.70
2023-05-10T00:47:33.850Z,189.48
2023-05-10T00:48:33.862Z,189.63
2023-05-10T00:49:33.884Z,189.35
2023-05-10T00:50:33.923Z,187.39
2023-05-10T00:51:33.940Z,189.09
2023-05-10T00:52:33.926Z,188.64
2023-05-10T00:53:34.144Z,188.97
2023-05-10T00:54:33.995Z,188.82
2023-05-10T00:55:34.045Z,187.24
2023-05-10T00:56:34.067Z,188.84
2023-05-10T00:57:34.077Z,188.63
2023-05-10T00:58:34.130Z,187.46
2023-05-10T00:59:34.128Z,188.29
2023-05-10T01:00:34.168Z,189.21
2023-05-10T01:01:34.234Z,187.86
2023-05-10T01:02:34.250Z,187.81
2023-05-10T01:03:34.309Z,188.47
2023-05-10T01:04:34.334Z,189.01
2023-05-10T01:05:34.298Z,187.11
2023-05-10T01:06:34.313Z,186.38
2023-05-10T01:07:34.367Z,187.99
2023-05-10T01:08:34.393Z,187.78
2023-05-10T01:09:34.407Z,187.86
2023-05-10T01:10:34.447Z,187.58
2023-05-10T01:11:34.448Z,188.57
2023-05-10T01:12:34.535Z,188.38
2023-05-10T01:13:34.534Z,189.11
2023-05-10T01:14:34.527Z,189.18
2023-05-10T01:15:34.609Z,187.14
2023-05-10T01:16:34.694Z,188.81
2023-05-10T01:17:34.638Z,188.07
2023-05-10T01:18:34.674Z,186.00
2023-05-10T01:19:34.672Z,188.16
2023-05-10T01:20:34.762Z,186.65
2023-05-10T01:21:34.775Z,186.85
2023-05-10T01:22:34.774Z,187.48
2023-05-10T01:23:35.183Z,187.37
2023-05-10T01:24:34.835Z,187.22
2023-05-10T01:25:34.854Z,187.22
2023-05-10T01:26:34.927Z,188.30
2023-05-10T01:27:34.926Z,187.69
2023-05-10T01:28:35.140Z,187.55
2023-05-10T01:29:34.990Z,188.22
2023-05-10T01:30:34.988Z,185.97
2023-05-10T01:31:35.052Z,187.82
2023-05-10T01:32:35.105Z,188.18
2023-05-10T01:33:35.165Z,187.23
2023-05-10T01:34:35.127Z,187.23
2023-05-10T01:35:35.192Z,187.53
2023-05-10T01:36:35.169Z,186.85
2023-05-10T01:37:35.282Z,187.21
2023-05-10T01:38:35.698Z,186.92
2023-05-10T01:39:35.289Z,186.69
2023-05-10T01:40:35.340Z,186.19
2023-05-10T01:41:35.343Z,186.74
2023-05-10T01:42:35.365Z,187.90
2023-05-10T01:43:35.421Z,187.61
2023-05-10T01:44:35.420Z,186.19
2023-05-10T01:45:35.478Z,186.29
2023-05-10T01:46:35.513Z,188.20
2023-05-10T01:47:35.590Z,186.27
2023-05-10T01:48:35.571Z,187.26
2023-05-10T01:49:35.603Z,187.68
2023-05-10T01:50:35.656Z,186.34
2023-05-10T01:51:35.684Z,188.08
2023-05-10T01:52:35.740Z,187.56
2023-05-10T01:53:35.728Z,188.04
2023-05-10T01:54:35.779Z,186.39
2023-05-10T01:55:35.801Z,186.60
2023-05-10T01:56:35.831Z,187.25
2023-05-10T01:57:35.860Z,187.00
2023-05-10T01:58:35.939Z,186.84
2023-05-10T01:59:35.911Z,188.04
2023-05-10T02:00:35.983Z,185.65
2023-05-10T02:01:35.986Z,187.02
2023-05-10T02:02:36.037Z,185.91
2023-05-10T02:03:36.104Z,187.23
2023-05-10T02:04:36.144Z,186.57
2023-05-10T02:05:36.125Z,187.50
2023-05-10T02:06:36.185Z,185.90
2023-05-10T02:07:36.177Z,186.64
2023-05-10T02:08:36.224Z,185.52
2023-05-10T02:09:36.263Z,186.81
2023-05-10T02:10:36.281Z,185.99
2023-05-10T02:11:36.332Z,185.58
2023-05-10T02:12:36.361Z,185.32
2023-05-10T02:13:36.681Z,186.22
2023-05-10T02:14:36.422Z,184.26
2023-05-10T02:15:36.461Z,184.53
2023-05-10T02:16:36.500Z,185.23
2023-05-10T02:17:36.566Z,185.59
2023-05-10T02:18:36.548Z,186.01
2023-05-10T02:19:36.562Z,185.32
2023-05-10T02:20:36.609Z,186.29
2023-05-10T02:21:36.655Z,185.77
2023-05-10T02:22:36.697Z,185.37
2023-05-10T02:23:36.734Z,186.65
2023-05-10T02:24:36.736Z,186.41
2023-05-10T02:25:36.783Z,185.03
2023-05-10T02:26:36.822Z,186.64
2023-05-10T02:27:36.830Z,185.18
2023-05-10T02:28:36.882Z,184.54
2023-05-10T02:29:36.913Z,184.73
2023-05-10T02:30:36.956Z,185.34
2023-05-10T02:31:37.017Z,185.45
2023-05-10T02:32:37.022Z,185.87
2023-05-10T02:33:37.045Z,184.75
2023-05-10T02:34:37.069Z,182.77
2023-05-10T02:35:37.122Z,185.97
2023-05-10T02:36:37.161Z,185.14
2023-05-10T02:37:37.188Z,184.51
2023-05-10T02:38:37.709Z,184.04
2023-05-10T02:39:37.257Z,184.68
2023-05-10T02:40:37.296Z,186.82
2023-05-10T02:41:37.340Z,185.84
2023-05-10T02:42:37.369Z,184.15
2023-05-10T02:43:37.426Z,183.96
2023-05-10T02:44:37.417Z,185.86
2023-05-10T02:45:37.475Z,185.17
2023-05-10T02:46:37.522Z,184.37
2023-05-10T02:47:37.572Z,185.18
2023-05-10T02:48:37.582Z,184.59
2023-05-10T02:49:37.608Z,184.83
2023-05-10T02:50:37.661Z,185.58
2023-05-10T02:51:37.684Z,184.43
2023-05-10T02:52:37.742Z,185.32
2023-05-10T02:53:37.757Z,184.96
2023-05-10T02:54:37.809Z,184.47
2023-05-10T02:55:37.844Z,183.88
2023-05-10T02:56:37.889Z,183.93
2023-05-10T02:57:37.892Z,183.72
2023-05-10T02:58:37.941Z,183.19
2023-05-10T02:59:38.012Z,183.70
2023-05-10T03:00:38.041Z,184.00
2023-05-10T03:01:38.114Z,183.65
2023-05-10T03:02:38.115Z,183.10
2023-05-10T03:03:38.220Z,184.27
2023-05-10T03:04:38.190Z,183.25
2023-05-10T03:05:38.241Z,183.94
2023-05-10T03:06:38.228Z,183.25
2023-05-10T03:07:38.322Z,182.76
2023-05-10T03:08:38.358Z,184.91
2023-05-10T03:09:38.368Z,183.86
2023-05-10T03:10:38.401Z,184.07
2023-05-10T03:11:38.497Z,184.22
2023-05-10T03:12:38.500Z,184.59
2023-05-10T03:13:38.570Z,182.35
2023-05-10T03:14:38.582Z,183.81
2023-05-10T03:15:38.644Z,183.79
2023-05-10T03:16:38.654Z,184.22
2023-05-10T03:17:38.751Z,182.90
2023-05-10T03:18:38.757Z,183.53
2023-05-10T03:19:38.790Z,183.59
2023-05-10T03:20:38.792Z,180.78
2023-05-10T03:21:38.824Z,184.01
2023-05-10T03:22:38.852Z,183.38
2023-05-10T03:23:38.924Z,182.84
2023-05-10T03:24:38.979Z,180.51
2023-05-10T03:25:38.996Z,182.62
2023-05-10T03:26:39.038Z,182.41
2023-05-10T03:27:39.044Z,182.05
2023-05-10T03:28:39.081Z,183.14
2023-05-10T03:29:39.112Z,181.91
2023-05-10T03:30:39.147Z,182.23
2023-05-10T03:31:39.261Z,183.56
2023-05-10T03:32:39.265Z,182.01
2023-05-10T03:33:39.699Z,181.92
2023-05-10T03:34:39.382Z,182.67
2023-05-10T03:35:39.356Z,184.34
2023-05-10T03:36:39.391Z,182.52
2023-05-10T03:37:39.430Z,183.68
2023-05-10T03:38:39.701Z,182.37
2023-05-10T03:39:39.527Z,182.20
2023-05-10T03:40:39.538Z,183.35
2023-05-10T03:41:39.570Z,182.22
2023-05-10T03:42:39.616Z,182.40
2023-05-10T03:43:39.732Z,183.48
2023-05-10T03:44:39.699Z,181.98
2023-05-10T03:45:39.744Z,180.71
2023-05-10T03:46:39.791Z,182.04
2023-05-10T03:47:39.854Z,182.90
2023-05-10T03:48:40.217Z,181.23
2023-05-10T03:49:39.940Z,182.23
2023-05-10T03:50:39.949Z,180.74
2023-05-10T03:51:39.983Z,180.38
2023-05-10T03:52:40.049Z,180.71
2023-05-10T03:53:40.108Z,180.07
2023-05-10T03:54:40.106Z,181.68
2023-05-10T03:55:40.183Z,181.75
2023-05-10T03:56:40.168Z,178.85
2023-05-10T03:57:40.257Z,181.09
2023-05-10T03:58:40.692Z,181.32
2023-05-10T03:59:40.350Z,181.74
2023-05-10T04:00:40.323Z,180.63
2023-05-10T04:01:40.427Z,181.67
2023-05-10T04:02:40.525Z,180.76
2023-05-10T04:03:40.541Z,181.23
2023-05-10T04:04:40.720Z,179.80
2023-05-10T04:05:40.562Z,181.85
2023-05-10T04:06:40.674Z,180.75
2023-05-10T04:07:40.636Z,181.81
2023-05-10T04:08:40.677Z,182.30
2023-05-10T04:09:40.734Z,180.65
2023-05-10T04:10:40.762Z,180.87
2023-05-10T04:11:40.807Z,181.28
2023-05-10T04:12:40.854Z,179.43
2023-05-10T04:13:40.909Z,181.75
2023-05-10T04:14:41.236Z,180.85
2023-05-10T04:15:40.988Z,180.46
2023-05-10T04:16:41.066Z,180.34
2023-05-10T04:17:41.120Z,180.08
2023-05-10T04:18:41.160Z,179.85
2023-05-10T04:19:41.209Z,180.12
2023-05-10T04:20:41.238Z,181.33
2023-05-10T04:21:41.273Z,179.54
2023-05-10T04:22:41.354Z,179.94
2023-05-10T04:23:41.358Z,179.55
2023-05-10T04:24:41.423Z,180.68
2023-05-10T04:25:41.448Z,179.60
2023-05-10T04:26:41.517Z,179.38
2023-05-10T04:27:41.550Z,180.52
2023-05-10T04:28:41.637Z,178.35
2023-05-10T04:29:41.706Z,178.43
2023-05-10T04:30:41.726Z,179.15
2023-05-10T04:31:41.741Z,177.98
2023-05-10T04:32:41.828Z,179.57
2023-05-10T04:33:41.838Z,179.25
2023-05-10T04:34:41.884Z,179.21
2023-05-10T04:35:41.912Z,178.68
2023-05-10T04:36:41.958Z,181.03
2023-05-10T04:37:42.016Z,177.89
2023-05-10T04:38:42.069Z,177.97
2023-05-10T04:39:42.516Z,178.80
2023-05-10T04:40:42.199Z,180.18
2023-05-10T04:41:42.227Z,179.97
2023-05-10T04:42:42.271Z,177.99
2023-05-10T04:43:42.327Z,179.10
2023-05-10T04:44:42.715Z,180.44
2023-05-10T04:45:42.417Z,179.80
2023-05-10T04:46:42.567Z,179.46
2023-05-10T04:47:42.530Z,180.35
2023-05-10T04:48:42.561Z,179.04
2023-05-10T04:49:42.738Z,179.90
2023-05-10T04:50:42.616Z,178.72
2023-05-10T04:51:42.688Z,180.32
2023-05-10T04:52:42.718Z,179.46
2023-05-10T04:53:46.404Z,177.86
2023-05-10T04:54:43.758Z,178.05
2023-05-10T04:55:42.732Z,178.34
2023-05-10T04:56:42.748Z,178.73
2023-05-10T04:57:42.750Z,179.18
2023-05-10T04:58:42.726Z,179.23
2023-05-10T04:59:42.737Z,178.60
2023-05-10T05:00:42.706Z,177.83
2023-05-10T05:01:42.721Z,179.29
2023-05-10T05:02:42.866Z,179.44
2023-05-10T05:03:42.781Z,178.86
2023-05-10T05:04:42.772Z,179.52
2023-05-10T05:05:42.712Z,178.50
2023-05-10T05:06:42.787Z,177.81
2023-05-10T05:07:42.807Z,177.10
2023-05-10T05:08:42.928Z,176.59
2023-05-10T05:09:42.918Z,178.35
2023-05-10T05:10:42.962Z,176.92
2023-05-10T05:11:43.002Z,177.99
2023-05-10T05:12:43.110Z,177.62
2023-05-10T05:13:43.102Z,177.70
2023-05-10T05:14:43.143Z,176.66
2023-05-10T05:15:43.209Z,176.67
2023-05-10T05:16:43.247Z,177.46
2023-05-10T05:17:43.415Z,177.44
2023-05-10T05:18:43.332Z,176.43
2023-05-10T05:19:43.390Z,178.63
2023-05-10T05:20:43.442Z,175.29
2023-05-10T05:21:43.514Z,175.59
2023-05-10T05:22:43.492Z,177.29
2023-05-10T05:23:43.543Z,177.11
2023-05-10T05:24:43.587Z,178.31
2023-05-10T05:25:43.628Z,177.07
2023-05-10T05:26:43.682Z,176.41
2023-05-10T05:27:43.896Z,175.18
2023-05-10T05:28:43.783Z,176.61
2023-05-10T05:29:43.826Z,176.48
2023-05-10T05:30:43.831Z,175.77
2023-05-10T05:31:43.933Z,175.89
2023-05-10T05:32:43.973Z,175.53
2023-05-10T05:33:44.031Z,175.44
2023-05-10T05:34:44.033Z,175.71
2023-05-10T05:35:45.841Z,175.53
2023-05-10T05:36:44.140Z,175.91
2023-05-10T05:37:44.209Z,176.49
2023-05-10T05:38:44.242Z,175.36
2023-05-10T05:39:44.243Z,175.66
2023-05-10T05:40:44.309Z,175.72
2023-05-10T05:41:44.335Z,174.69
2023-05-10T05:42:44.390Z,176.34
2023-05-10T05:43:44.442Z,176.12
2023-05-10T05:44:44.789Z,176.73
2023-05-10T05:45:44.553Z,175.69
2023-05-10T05:46:44.607Z,174.98
2023-05-10T05:47:44.646Z,177.19
2023-05-10T05:48:44.657Z,179.86
2023-05-10T05:49:44.740Z,180.88
2023-05-10T05:50:44.769Z,181.67
2023-05-10T05:51:44.879Z,185.89
2023-05-10T05:52:44.982Z,186.83
2023-05-10T05:53:44.968Z,192.06
2023-05-10T05:54:45.270Z,194.60
2023-05-10T05:55:45.087Z,199.81
2023-05-10T05:56:45.122Z,210.19
2023-05-10T05:57:45.197Z,215.17
2023-05-10T05:58:45.259Z,218.03
2023-05-10T05:59:45.247Z,222.66
2023-05-10T06:00:45.315Z,225.21
2023-05-10T06:01:45.364Z,233.04
2023-05-10T06:02:45.519Z,235.70
2023-05-10T06:03:45.469Z,250.52
2023-05-10T06:04:45.763Z,251.34
2023-05-10T06:05:45.503Z,250.00
2023-05-10T06:06:45.485Z,255.87
2023-05-10T06:07:45.653Z,284.95
2023-05-10T06:08:45.493Z,297.13
2023-05-10T06:09:45.547Z,267.45
2023-05-10T06:10:45.543Z,249.53
2023-05-10T06:11:45.531Z,248.66
2023-05-10T06:12:45.547Z,246.79
2023-05-10T06:13:45.581Z,249.47
2023-05-10T06:14:45.758Z,250.00
2023-05-10T06:15:45.554Z,248.09
2023-05-10T06:16:45.561Z,248.10
2023-05-10T06:17:45.646Z,247.39
2023-05-10T06:18:45.532Z,250.00
2023-05-10T06:19:45.532Z,248.59
2023-05-10T06:20:45.549Z,249.27
2023-05-10T06:21:45.553Z,248.89
2023-05-10T06:22:45.579Z,248.82
2023-05-10T06:23:45.700Z,249.86
2023-05-10T06:24:45.792Z,247.30
2023-05-10T06:25:45.751Z,248.87
2023-05-10T06:26:45.808Z,249.01
2023-05-10T06:27:49.076Z,249.52
2023-05-10T06:28:46.837Z,249.69
2023-05-10T06:29:46.284Z,250.19
2023-05-10T06:30:45.868Z,251.10
2023-05-10T06:31:45.847Z,252.61
2023-05-10T06:32:45.881Z,252.86
2023-05-10T06:33:45.841Z,249.36
2023-05-10T06:34:46.231Z,249.42
2023-05-10T06:35:45.815Z,249.64
2023-05-10T06:36:45.813Z,249.67
2023-05-10T06:37:45.823Z,248.64
2023-05-10T06:38:45.910Z,249.52
2023-05-10T06:39:45.903Z,250.00
2023-05-10T06:40:45.916Z,248.84
2023-05-10T06:41:45.936Z,250.00
2023-05-10T06:42:46.022Z,248.00
2023-05-10T06:43:46.026Z,247.04
2023-05-10T06:44:46.065Z,248.86
2023-05-10T06:45:46.061Z,249.51
2023-05-10T06:46:46.208Z,249.50
2023-05-10T06:47:46.175Z,249.24
2023-05-10T06:48:46.165Z,248.87
2023-05-10T06:49:46.177Z,249.74
2023-05-10T06:50:46.225Z,249.46
2023-05-10T06:51:46.224Z,248.31
2023-05-10T06:52:46.255Z,239.91
2023-05-10T06:53:46.314Z,237.34
2023-05-10T06:54:46.770Z,239.87
2023-05-10T06:55:46.424Z,234.39
2023-05-10T06:56:46.466Z,220.65
2023-05-10T06:57:46.527Z,215.86
2023-05-10T06:58:46.627Z,209.18
2023-05-10T06:59:46.669Z,209.88
2023-05-10T07:00:46.742Z,208.50
2023-05-10T07:01:46.801Z,200.64
2023-05-10T07:02:46.824Z,190.51
2023-05-10T07:03:46.801Z,196.22
2023-05-10T07:04:46.798Z,193.68
2023-05-10T07:05:46.757Z,194.24
2023-05-10T07:06:46.780Z,194.40
2023-05-10T07:07:46.814Z,186.16
2023-05-10T07:08:46.765Z,190.10
2023-05-10T07:09:47.301Z,191.48
2023-05-10T07:10:46.779Z,188.47
2023-05-10T07:11:46.816Z,187.46
2023-05-10T07:12:46.881Z,186.32
2023-05-10T07:13:46.780Z,179.04
2023-05-10T07:14:46.803Z,180.81
2023-05-10T07:15:46.783Z,178.13
2023-05-10T07:16:46.868Z,182.21
2023-05-10T07:17:46.870Z,182.98
2023-05-10T07:18:46.819Z,182.34
2023-05-10T07:19:46.907Z,184.15
2023-05-10T07:20:46.964Z,184.69
2023-05-10T07:21:47.012Z,187.34
2023-05-10T07:22:47.025Z,187.93
2023-05-10T07:23:47.091Z,189.17
2023-05-10T07:24:47.297Z,191.15
2023-05-10T07:25:47.177Z,192.50
2023-05-10T07:26:47.213Z,192.19
2023-05-10T07:27:47.292Z,194.49
2023-05-10T07:28:47.333Z,196.35
2023-05-10T07:29:47.337Z,197.54
2023-05-10T07:30:47.478Z,199.00
2023-05-10T07:31:47.449Z,200.40
2023-05-10T07:32:47.525Z,201.98
2023-05-10T07:33:47.491Z,203.72
2023-05-10T07:34:47.509Z,204.99
2023-05-10T07:35:47.512Z,207.14
2023-05-10T07:36:47.673Z,208.33
2023-05-10T07:37:47.587Z,209.90
2023-05-10T07:38:47.598Z,208.98
2023-05-10T07:39:47.592Z,208.71
2023-05-10T07:40:47.658Z,210.15
2023-05-10T07:41:47.639Z,212.18
2023-05-10T07:42:47.692Z,214.44
2023-05-10T07:43:47.716Z,213.81
2023-05-10T07:44:47.787Z,216.39
2023-05-10T07:45:47.873Z,217.72
2023-05-10T07:46:47.758Z,220.27
2023-05-10T07:47:47.875Z,221.41
2023-05-10T07:48:47.821Z,221.63
2023-05-10T07:49:48.275Z,223.59
2023-05-10T07:50:47.865Z,224.71
2023-05-10T07:51:47.855Z,225.31
2023-05-10T07:52:47.894Z,225.29
2023-05-10T07:53:47.921Z,227.42
2023-05-10T07:54:47.960Z,229.72
2023-05-10T07:55:47.924Z,233.34
2023-05-10T07:56:47.942Z,234.63
2023-05-10T07:57:47.983Z,236.85
2023-05-10T07:58:47.992Z,240.02
2023-05-10T07:59:48.301Z,241.09
2023-05-10T08:00:48.004Z,243.11
2023-05-10T08:01:47.990Z,246.86
2023-05-10T08:02:48.073Z,248.90
2023-05-10T08:03:48.085Z,249.44
2023-05-10T08:04:48.278Z,250.00
2023-05-10T08:05:48.026Z,249.42
2023-05-10T08:06:48.087Z,250.00
2023-05-10T08:07:48.071Z,250.00
2023-05-10T08:08:48.101Z,250.00
2023-05-10T08:09:48.296Z,249.91
2023-05-10T08:10:48.143Z,249.50
2023-05-10T08:11:48.178Z,249.79
2023-05-10T08:12:48.177Z,250.00
2023-05-10T08:13:48.234Z,249.29
2023-05-10T08:14:48.271Z,249.38
2023-05-10T08:15:48.349Z,249.78
2023-05-10T08:16:48.378Z,250.00
2023-05-10T08:17:48.465Z,250.06
2023-05-10T08:18:49.571Z,249.56
2023-05-10T08:19:48.793Z,249.47
2023-05-10T08:20:48.620Z,250.00
2023-05-10T08:21:48.716Z,250.00
2023-05-10T08:22:50.000Z,249.66
2023-05-10T08:23:48.732Z,249.09
2023-05-10T08:24:48.794Z,248.98
2023-05-10T08:25:48.741Z,249.06
2023-05-10T08:26:48.689Z,245.85
2023-05-10T08:27:48.708Z,246.41
2023-05-10T08:28:48.711Z,250.00
2023-05-10T08:29:50.445Z,249.93
2023-05-10T08:30:48.669Z,248.03
2023-05-10T08:31:48.700Z,246.41
2023-05-10T08:32:48.725Z,244.64
2023-05-10T08:33:48.655Z,243.93
2023-05-10T08:34:48.808Z,243.09
2023-05-10T08:35:48.616Z,240.82
2023-05-10T08:36:48.643Z,240.60
2023-05-10T08:37:48.672Z,240.32
2023-05-10T08:38:49.675Z,238.50
2023-05-10T08:39:48.791Z,236.03
2023-05-10T08:40:48.847Z,235.15
2023-05-10T08:41:48.920Z,233.18
2023-05-10T08:42:48.929Z,233.31
2023-05-10T08:43:49.036Z,234.00
2023-05-10T08:44:49.595Z,234.01
2023-05-10T08:45:49.150Z,232.13
2023-05-10T08:46:49.219Z,230.53
2023-05-10T08:47:49.232Z,228.83
2023-05-10T08:48:49.227Z,225.21
2023-05-10T08:49:49.294Z,224.43
2023-05-10T08:50:49.212Z,223.96
2023-05-10T08:51:49.217Z,222.21
2023-05-10T08:52:49.260Z,220.75
2023-05-10T08:53:49.200Z,219.91
2023-05-10T08:54:49.242Z,219.03
2023-05-10T08:55:49.213Z,216.83
2023-05-10T08:56:49.905Z,214.66
2023-05-10T08:57:49.274Z,212.69
2023-05-10T08:58:49.277Z,211.09
2023-05-10T08:59:49.311Z,209.75
2023-05-10T09:00:49.930Z,208.96
2023-05-10T09:01:49.354Z,206.51
2023-05-10T09:02:49.401Z,203.40
2023-05-10T09:03:49.418Z,199.66
2023-05-10T09:04:49.439Z,195.50
2023-05-10T09:05:49.476Z,192.25
2023-05-10T09:06:49.500Z,189.31
2023-05-10T09:07:49.503Z,187.55
2023-05-10T09:08:49.519Z,186.50
2023-05-10T09:09:49.517Z,184.53
2023-05-10T09:10:49.551Z,185.29
2023-05-10T09:11:49.582Z,184.52
2023-05-10T09:12:49.662Z,183.69
2023-05-10T09:13:49.612Z,183.46
2023-05-10T09:14:49.654Z,182.50
2023-05-10T09:15:49.798Z,182.09
2023-05-10T09:16:49.766Z,180.96
2023-05-10T09:17:49.828Z,180.72
2023-05-10T09:18:49.805Z,179.96
2023-05-10T09:19:49.790Z,180.32
2023-05-10T09:20:49.788Z,179.24
2023-05-10T09:21:49.834Z,178.75
2023-05-10T09:22:49.909Z,177.82
2023-05-10T09:23:49.938Z,178.23
2023-05-10T09:24:49.984Z,176.86
2023-05-10T09:25:50.354Z,177.06
2023-05-10T09:26:50.113Z,176.89
2023-05-10T09:27:50.054Z,176.29
2023-05-10T09:28:50.111Z,176.51
2023-05-10T09:29:50.144Z,175.96
2023-05-10T09:30:50.205Z,175.03
2023-05-10T09:31:50.185Z,175.26
2023-05-10T09:32:50.363Z,174.25
2023-05-10T09:33:50.257Z,174.27
2023-05-10T09:34:50.334Z,173.96
2023-05-10T09:35:50.823Z,174.54
2023-05-10T09:36:50.428Z,174.59
2023-05-10T09:37:50.468Z,174.94
2023-05-10T09:38:50.496Z,174.92
2023-05-10T09:39:50.512Z,175.19
2023-05-10T09:40:50.865Z,174.79
2023-05-10T09:41:50.628Z,174.38
2023-05-10T09:42:50.663Z,174.11
2023-05-10T09:43:50.708Z,174.03
2023-05-10T09:44:50.756Z,173.21
2023-05-10T09:45:50.870Z,173.19
2023-05-10T09:46:50.827Z,172.08
2023-05-10T09:47:50.974Z,171.72
2023-05-10T09:48:50.960Z,171.48
2023-05-10T09:49:51.037Z,171.40
2023-05-10T09:50:51.381Z,170.98
2023-05-10T09:51:51.089Z,170.47
2023-05-10T09:52:51.165Z,170.54
2023-05-10T09:53:51.189Z,168.76
2023-05-10T09:54:51.264Z,169.62
2023-05-10T09:55:51.335Z,169.18
2023-05-10T09:56:51.319Z,168.75
2023-05-10T09:57:51.400Z,168.89
2023-05-10T09:58:51.464Z,167.95
2023-05-10T09:59:51.531Z,167.77
2023-05-10T10:00:51.540Z,166.63
2023-05-10T10:01:51.700Z,166.22
2023-05-10T10:02:51.709Z,167.34
2023-05-10T10:03:51.745Z,167.48
2023-05-10T10:04:51.906Z,167.07
2023-05-10T10:05:51.854Z,167.29
2023-05-10T10:06:51.916Z,166.45
2023-05-10T10:07:51.977Z,165.93
2023-05-10T10:08:52.000Z,165.30
2023-05-10T10:09:52.096Z,165.35
2023-05-10T10:10:52.153Z,165.66
2023-05-10T10:11:52.180Z,164.83
2023-05-10T10:12:52.255Z,165.01
2023-05-10T10:13:52.301Z,164.90
2023-05-10T10:14:52.368Z,164.68
2023-05-10T10:15:52.449Z,163.58
2023-05-10T10:17:05.716Z,163.46
2023-05-10T10:17:53.522Z,163.53
2023-05-10T10:18:52.532Z,163.64
2023-05-10T10:19:52.473Z,163.63
2023-05-10T10:20:52.438Z,162.38
2023-05-10T10:21:52.448Z,163.36
2023-05-10T10:22:52.433Z,162.71
2023-05-10T10:23:52.453Z,163.08
2023-05-10T10:24:52.434Z,162.78
2023-05-10T10:25:52.834Z,161.48
2023-05-10T10:26:52.577Z,160.68
2023-05-10T10:27:52.707Z,160.75
2023-05-10T10:28:52.695Z,161.06
2023-05-10T10:29:52.742Z,160.37
2023-05-10T10:30:52.810Z,159.94
2023-05-10T10:31:52.885Z,160.03
2023-05-10T10:32:52.982Z,160.37
2023-05-10T10:33:52.967Z,159.53
2023-05-10T10:34:53.007Z,158.66
2023-05-10T10:35:53.067Z,159.18
2023-05-10T10:36:53.159Z,158.88
2023-05-10T10:37:53.219Z,158.31
2023-05-10T10:38:53.294Z,158.73
2023-05-10T10:39:53.465Z,158.28
2023-05-10T10:40:54.256Z,158.04
2023-05-10T10:41:53.515Z,157.72
2023-05-10T10:42:53.580Z,157.49
2023-05-10T10:43:53.618Z,157.67
2023-05-10T10:44:53.663Z,156.88
2023-05-10T10:45:53.726Z,156.77
2023-05-10T10:46:53.827Z,156.62
2023-05-10T10:47:53.879Z,156.47
2023-05-10T10:48:53.901Z,156.36
2023-05-10T10:49:53.955Z,156.32
2023-05-10T10:50:54.332Z,155.47
2023-05-10T10:51:54.072Z,154.51
2023-05-10T10:52:54.170Z,154.48
2023-05-10T10:53:54.182Z,154.58
2023-05-10T10:54:54.254Z,154.65
2023-05-10T10:55:54.317Z,154.59
2023-05-10T10:56:54.401Z,154.41
2023-05-10T10:57:54.436Z,153.56
2023-05-10T10:58:54.487Z,153.20
2023-05-10T10:59:54.563Z,153.64
2023-05-10T11:00:54.894Z,152.40
2023-05-10T11:01:54.683Z,152.74
2023-05-10T11:02:54.824Z,152.35
2023-05-10T11:03:54.829Z,152.68
2023-05-10T11:04:54.857Z,152.09
2023-05-10T11:05:55.358Z,152.77
2023-05-10T11:06:54.944Z,152.28
2023-05-10T11:07:55.976Z,152.36
2023-05-10T11:08:54.935Z,152.48
2023-05-10T11:09:54.915Z,150.54
2023-05-10T11:10:55.376Z,150.96
2023-05-10T11:11:54.933Z,150.58
2023-05-10T11:12:54.927Z,150.61
2023-05-10T11:13:54.944Z,149.92
2023-05-10T11:14:54.948Z,150.78
2023-05-10T11:15:55.351Z,149.24
2023-05-10T11:16:55.047Z,148.45
2023-05-10T11:17:55.106Z,148.86
2023-05-10T11:18:55.186Z,148.83
2023-05-10T11:19:55.248Z,147.86
2023-05-10T11:20:55.348Z,147.44
2023-05-10T11:21:55.380Z,147.12
2023-05-10T11:22:55.402Z,146.96
2023-05-10T11:23:55.484Z,146.99
2023-05-10T11:24:55.536Z,146.39
2023-05-10T11:25:55.830Z,146.42
2023-05-10T11:26:55.661Z,146.11
2023-05-10T11:27:55.701Z,145.76
2023-05-10T11:28:55.785Z,145.12
2023-05-10T11:29:55.823Z,145.29
2023-05-10T11:30:56.368Z,144.83
2023-05-10T11:31:55.980Z,144.24
2023-05-10T11:32:56.057Z,143.93
2023-05-10T11:33:56.094Z,142.94
2023-05-10T11:34:56.142Z,143.45
2023-05-10T11:35:56.904Z,141.80
2023-05-10T11:36:56.315Z,142.89
2023-05-10T11:37:56.349Z,142.25
2023-05-10T11:38:56.429Z,141.22
2023-05-10T11:39:56.440Z,141.65
2023-05-10T11:40:56.869Z,141.56
2023-05-10T11:41:56.581Z,140.74
2023-05-10T11:42:56.624Z,140.27
2023-05-10T11:43:56.693Z,140.09
2023-05-10T11:44:56.761Z,139.99
2023-05-10T11:45:56.825Z,139.33
2023-05-10T11:46:56.872Z,140.29
2023-05-10T11:47:56.929Z,138.44
2023-05-10T11:48:56.992Z,139.02
2023-05-10T11:49:57.015Z,138.60
2023-05-10T11:50:57.345Z,137.77
2023-05-10T11:51:57.108Z,137.76
2023-05-10T11:52:57.185Z,138.36
2023-05-10T11:53:57.200Z,138.49
2023-05-10T11:54:57.227Z,137.23
2023-05-10T11:55:57.345Z,135.94
2023-05-10T11:56:57.354Z,136.09
2023-05-10T11:57:57.393Z,135.85
2023-05-10T11:58:57.412Z,135.70
2023-05-10T11:59:57.503Z,136.67
2023-05-10T12:00:57.539Z,135.59
2023-05-10T12:01:57.596Z,136.46
2023-05-10T12:02:57.738Z,136.07
2023-05-10T12:03:57.912Z,134.32
2023-05-10T12:04:57.766Z,135.93
2023-05-10T12:05:57.881Z,135.56
2023-05-10T12:06:57.753Z,135.74
2023-05-10T12:07:57.843Z,135.00
2023-05-10T12:08:57.857Z,134.64
2023-05-10T12:09:57.870Z,135.20
2023-05-10T12:10:58.377Z,134.72
2023-05-10T12:11:57.971Z,136.21
2023-05-10T12:12:58.032Z,134.10
2023-05-10T12:13:58.062Z,133.59
2023-05-10T12:14:58.094Z,134.04
2023-05-10T12:15:58.411Z,133.84
2023-05-10T12:16:58.170Z,134.13
2023-05-10T12:17:58.216Z,133.23
2023-05-10T12:18:58.235Z,134.17
2023-05-10T12:19:58.258Z,133.65
2023-05-10T12:20:58.383Z,133.32
2023-05-10T12:21:58.359Z,132.55
2023-05-10T12:23:00.324Z,133.23
2023-05-10T12:23:58.403Z,133.03
2023-05-10T12:24:58.413Z,132.23
2023-05-10T12:25:58.890Z,132.14
2023-05-10T12:26:58.488Z,131.16
2023-05-10T12:27:58.488Z,131.46
2023-05-10T12:28:58.528Z,131.48